createdAt,value
2022-12-26T00:01:55.943Z,157531.16
2022-12-26T00:04:49.949Z,157513.94
2022-12-26T00:07:14.142Z,157516.56
2022-12-26T00:09:41.413Z,157539.13
2022-12-26T00:12:08.687Z,157532.47
2022-12-26T00:14:36.214Z,157536.50
2022-12-26T00:17:03.317Z,157531.16
2022-12-26T00:19:30.741Z,157541.81
2022-12-26T00:21:57.858Z,157531.16
2022-12-26T00:24:25.267Z,157521.88
2022-12-26T00:26:52.401Z,157523.22
2022-12-26T00:29:19.700Z,157544.44
2022-12-26T00:31:47.040Z,157519.25
2022-12-26T00:34:14.434Z,157547.13
2022-12-26T00:36:42.006Z,157540.50
2022-12-26T00:39:09.489Z,157552.41
2022-12-26T00:41:36.604Z,157539.13
2022-12-26T00:44:04.185Z,157547.13
2022-12-26T00:46:31.459Z,157540.50
2022-12-26T00:48:59.168Z,157535.16
2022-12-26T00:51:26.833Z,157536.50
2022-12-26T00:53:54.212Z,157549.78
2022-12-26T00:56:21.333Z,157547.13
2022-12-26T00:58:48.675Z,157536.50
2022-12-26T01:01:18.810Z,157549.78
2022-12-26T01:03:47.877Z,157571.03
2022-12-26T01:06:15.390Z,157560.38
2022-12-26T01:08:42.948Z,157555.09
2022-12-26T01:11:12.526Z,157540.50
2022-12-26T01:13:40.049Z,157549.78
2022-12-26T01:16:07.999Z,157555.09
2022-12-26T01:18:36.011Z,157545.78
2022-12-26T01:21:06.546Z,157548.47
2022-12-26T01:23:33.989Z,157563.06
2022-12-26T01:26:16.909Z,157575.03
2022-12-26T01:28:52.029Z,157571.03
2022-12-26T01:31:20.219Z,157555.09
2022-12-26T01:33:47.897Z,157564.38
2022-12-26T01:36:16.580Z,157556.41
2022-12-26T01:38:44.002Z,157572.34
2022-12-26T01:41:21.719Z,157575.03
2022-12-26T01:43:56.259Z,157568.38
2022-12-26T01:46:44.569Z,157575.03
2022-12-26T01:49:36.927Z,157573.66
2022-12-26T01:52:07.178Z,157588.25
2022-12-26T01:54:42.294Z,157575.03
2022-12-26T01:57:17.023Z,157576.34
2022-12-26T01:59:46.336Z,157594.91
2022-12-26T02:02:14.410Z,157586.94
2022-12-26T02:05:04.261Z,157586.94
2022-12-26T02:07:33.604Z,157589.63
2022-12-26T02:10:01.093Z,157569.72
2022-12-26T02:12:38.476Z,157565.69
2022-12-26T02:15:11.478Z,157580.31
2022-12-26T02:17:39.797Z,157563.06
2022-12-26T02:20:27.227Z,157576.34
2022-12-26T02:23:29.852Z,157564.38
2022-12-26T02:26:34.494Z,157523.22
2022-12-26T02:29:10.763Z,157541.81
2022-12-26T02:31:40.728Z,157544.44
2022-12-26T02:34:23.103Z,157556.41
2022-12-26T02:37:20.475Z,157543.13
2022-12-26T02:40:06.656Z,157547.13
2022-12-26T02:42:56.740Z,157531.16
2022-12-26T02:46:07.865Z,157541.81
2022-12-26T02:48:46.865Z,157547.13
2022-12-26T02:51:52.793Z,157552.41
2022-12-26T02:55:00.552Z,157543.13
2022-12-26T02:57:54.631Z,157544.44
2022-12-26T03:00:40.979Z,157541.81
2022-12-26T03:03:31.010Z,157539.13
2022-12-26T03:06:28.776Z,157528.53
2022-12-26T03:09:19.625Z,157531.16
2022-12-26T03:12:08.975Z,157535.16
2022-12-26T03:14:41.221Z,157531.16
2022-12-26T03:17:23.166Z,157549.78
2022-12-26T03:20:22.792Z,157544.44
2022-12-26T03:22:55.162Z,157537.81
2022-12-26T03:26:00.096Z,157537.81
2022-12-26T03:28:27.653Z,157531.16
2022-12-26T03:30:57.072Z,157533.84
2022-12-26T03:34:09.471Z,157507.28
2022-12-26T03:37:14.103Z,157501.97
2022-12-26T03:40:15.395Z,157507.28
2022-12-26T03:43:19.673Z,157507.28
2022-12-26T03:46:24.657Z,157507.28
2022-12-26T03:49:17.991Z,157504.66
2022-12-26T03:52:10.091Z,157500.66
2022-12-26T03:54:58.682Z,157501.97
2022-12-26T03:57:48.541Z,157500.66
2022-12-26T04:00:34.678Z,157490.00
2022-12-26T04:03:29.808Z,157508.59
2022-12-26T04:06:17.797Z,157516.56
2022-12-26T04:09:12.764Z,157508.59
2022-12-26T04:12:00.942Z,157499.31
2022-12-26T04:15:13.547Z,157515.25
2022-12-26T04:17:59.298Z,157504.66
2022-12-26T04:20:40.973Z,157505.97
2022-12-26T04:23:42.237Z,157495.31
2022-12-26T04:26:36.855Z,157499.31
2022-12-26T04:29:23.125Z,157507.28
2022-12-26T04:32:22.759Z,157499.31
2022-12-26T04:35:33.159Z,157508.59
2022-12-26T04:38:19.629Z,157501.97
2022-12-26T04:41:08.875Z,157488.69
2022-12-26T04:43:55.353Z,157484.72
2022-12-26T04:46:23.549Z,157490.00
2022-12-26T04:49:11.099Z,157501.97
2022-12-26T04:51:38.540Z,157476.75
2022-12-26T04:54:06.499Z,157492.69
2022-12-26T04:56:33.832Z,157492.69
2022-12-26T04:59:00.902Z,157494.00
2022-12-26T05:01:46.938Z,157492.69
2022-12-26T05:04:34.192Z,157486.03
2022-12-26T05:07:21.315Z,157492.69
2022-12-26T05:09:51.413Z,157503.28
2022-12-26T05:12:19.255Z,157507.28
2022-12-26T05:14:46.373Z,157495.31
2022-12-26T05:17:32.785Z,157490.00
2022-12-26T05:20:18.634Z,157478.09
2022-12-26T05:23:05.809Z,157491.38
2022-12-26T05:25:54.706Z,157459.47
2022-12-26T05:28:41.018Z,157495.31
2022-12-26T05:31:10.042Z,157490.00
2022-12-26T05:33:55.814Z,157487.38
2022-12-26T05:36:24.949Z,157496.63
2022-12-26T05:38:52.629Z,157499.31
2022-12-26T05:41:19.746Z,157487.38
2022-12-26T05:43:47.097Z,157482.03
2022-12-26T05:46:14.566Z,157488.69
2022-12-26T05:48:41.999Z,157517.88
2022-12-26T05:51:09.229Z,157498.00
2022-12-26T05:53:36.695Z,157499.31
2022-12-26T05:56:06.850Z,157521.88
2022-12-26T05:58:34.815Z,157533.84
2022-12-26T06:01:16.978Z,157519.25
2022-12-26T06:03:50.501Z,157527.22
2022-12-26T06:06:21.534Z,157536.50
2022-12-26T06:08:50.418Z,157536.50
2022-12-26T06:11:18.379Z,157515.25
2022-12-26T06:13:46.209Z,157507.28
2022-12-26T06:16:15.878Z,157504.66
2022-12-26T06:18:43.319Z,157503.28
2022-12-26T06:21:13.099Z,157525.91
2022-12-26T06:23:40.934Z,157484.72
2022-12-26T06:26:10.422Z,157511.25
2022-12-26T06:28:38.881Z,157511.25
2022-12-26T06:31:09.839Z,157507.28
2022-12-26T06:33:37.804Z,157491.38
2022-12-26T06:36:16.639Z,157501.97
2022-12-26T06:38:44.328Z,157494.00
2022-12-26T06:41:14.126Z,157500.66
2022-12-26T06:43:42.223Z,157503.28
2022-12-26T06:46:13.191Z,157475.41
2022-12-26T06:48:40.786Z,157474.06
2022-12-26T06:51:11.745Z,157504.66
2022-12-26T06:53:39.653Z,157515.25
2022-12-26T06:56:07.540Z,157501.97
2022-12-26T06:58:35.164Z,157499.31
2022-12-26T07:01:13.727Z,157500.66
2022-12-26T07:03:48.583Z,157496.63
2022-12-26T07:06:34.052Z,157511.25
2022-12-26T07:09:14.537Z,157508.59
2022-12-26T07:11:44.230Z,157516.56
2022-12-26T07:14:14.048Z,157513.94
2022-12-26T07:16:42.554Z,157521.88
2022-12-26T07:19:11.683Z,157523.22
2022-12-26T07:21:40.949Z,157487.38
2022-12-26T07:24:20.195Z,157513.94
2022-12-26T07:26:48.302Z,157531.16
2022-12-26T07:29:16.433Z,157536.50
2022-12-26T07:31:43.678Z,157545.78
2022-12-26T07:34:11.229Z,157537.81
2022-12-26T07:36:38.399Z,157557.75
2022-12-26T07:39:05.898Z,157556.41
2022-12-26T07:41:52.070Z,157563.06
2022-12-26T07:44:19.469Z,157557.75
2022-12-26T07:46:49.485Z,157557.75
2022-12-26T07:49:16.852Z,157573.66
2022-12-26T07:51:44.135Z,157581.66
2022-12-26T07:54:12.102Z,157596.28
2022-12-26T07:56:40.656Z,157597.59
2022-12-26T07:59:13.595Z,157598.91
2022-12-26T08:01:40.931Z,157605.56
2022-12-26T08:04:08.829Z,157621.47
2022-12-26T08:06:35.869Z,157628.13
2022-12-26T08:09:04.002Z,157632.13
2022-12-26T08:11:33.915Z,157625.50
2022-12-26T08:14:01.892Z,157645.41
2022-12-26T08:16:29.308Z,157646.75
2022-12-26T08:18:56.781Z,157640.09
2022-12-26T08:21:24.213Z,157641.41
2022-12-26T08:23:51.847Z,157669.31
2022-12-26T08:26:22.877Z,157653.38
2022-12-26T08:28:51.532Z,157630.81
2022-12-26T08:31:19.977Z,157666.69
2022-12-26T08:33:47.983Z,157668.00
2022-12-26T08:36:19.352Z,157665.31
2022-12-26T08:38:46.947Z,157677.28
2022-12-26T08:41:14.550Z,157678.59
2022-12-26T08:46:29.192Z,157681.28
2022-12-26T08:48:56.530Z,157687.94
2022-12-26T08:51:24.790Z,157703.88
2022-12-26T08:53:54.156Z,157689.25
2022-12-26T08:56:25.935Z,157694.56
2022-12-26T08:58:53.781Z,157746.38
2022-12-26T09:01:23.481Z,157770.28
2022-12-26T09:04:09.351Z,157747.69
2022-12-26T09:06:38.761Z,157761.00
2022-12-26T09:09:08.157Z,157765.00
2022-12-26T09:11:35.314Z,157761.00
2022-12-26T09:14:03.648Z,157754.34
2022-12-26T09:16:38.004Z,157758.34
2022-12-26T09:19:06.834Z,157776.91
2022-12-26T09:21:34.120Z,157761.00
2022-12-26T09:24:04.856Z,157762.31
2022-12-26T09:26:32.645Z,157782.25
2022-12-26T09:29:00.294Z,157807.53
2022-12-26T09:31:29.933Z,157806.19
2022-12-26T09:33:57.800Z,157810.16
2022-12-26T09:36:29.866Z,157808.84
2022-12-26T09:38:58.176Z,157824.78
2022-12-26T09:41:50.288Z,157836.75
2022-12-26T09:44:56.470Z,157858.00
2022-12-26T09:48:02.900Z,157863.34
2022-12-26T09:50:39.564Z,157883.28
2022-12-26T09:53:13.443Z,157879.28
2022-12-26T09:55:46.849Z,157897.91
2022-12-26T09:58:40.194Z,157905.88
2022-12-26T10:01:29.982Z,157919.19
2022-12-26T10:03:59.091Z,157933.78
2022-12-26T10:06:30.568Z,157923.13
2022-12-26T10:09:30.490Z,157912.53
2022-12-26T10:12:12.242Z,157919.19
2022-12-26T10:15:22.821Z,157943.09
2022-12-26T10:17:59.446Z,157956.38
2022-12-26T10:20:45.516Z,157968.38
2022-12-26T10:23:39.968Z,157975.00
2022-12-26T10:26:14.776Z,157980.28
2022-12-26T10:28:47.969Z,157977.66
2022-12-26T10:31:46.708Z,158008.22
2022-12-26T10:34:21.637Z,158040.16
2022-12-26T10:37:31.113Z,158052.16
2022-12-26T10:40:16.613Z,158077.38
2022-12-26T10:42:46.081Z,158111.97
2022-12-26T10:45:20.955Z,158134.56
2022-12-26T10:47:50.260Z,158145.28
2022-12-26T10:50:27.604Z,158201.16
2022-12-26T10:52:55.916Z,158219.75
2022-12-26T10:55:31.582Z,158234.44
2022-12-26T10:58:04.354Z,158245.06
2022-12-26T11:00:31.927Z,158245.06
2022-12-26T11:03:09.706Z,158237.09
2022-12-26T11:08:40.730Z,158304.97
2022-12-26T11:11:21.304Z,158334.25
2022-12-26T11:14:01.695Z,158351.50
2022-12-26T11:16:38.861Z,158380.78
2022-12-26T11:19:06.299Z,158403.47
2022-12-26T11:21:34.419Z,158427.41
2022-12-26T11:24:20.628Z,158462.03
2022-12-26T11:26:48.212Z,158496.66
2022-12-26T11:29:20.920Z,158528.56
2022-12-26T11:31:54.911Z,158557.91
2022-12-26T11:34:34.461Z,158591.19
2022-12-26T11:37:02.314Z,158612.50
2022-12-26T11:39:32.793Z,158640.47
2022-12-26T11:42:00.410Z,158651.16
2022-12-26T11:44:32.124Z,158660.44
2022-12-26T11:47:19.720Z,158672.47
2022-12-26T11:50:08.061Z,158683.09
2022-12-26T11:52:38.359Z,158703.06
2022-12-26T11:55:27.796Z,158724.41
2022-12-26T11:58:15.609Z,158751.06
2022-12-26T12:01:05.886Z,158739.03
2022-12-26T12:03:50.042Z,158744.38
2022-12-26T12:06:19.218Z,158735.06
2022-12-26T12:08:49.268Z,158731.06
2022-12-26T12:11:25.153Z,158721.75
2022-12-26T12:14:23.780Z,158715.09
2022-12-26T12:17:31.326Z,158708.41
2022-12-26T12:20:11.797Z,158713.75
2022-12-26T12:22:43.840Z,158732.38
2022-12-26T12:25:20.120Z,158749.72
2022-12-26T12:28:06.031Z,158763.06
2022-12-26T12:30:55.193Z,158765.72
2022-12-26T12:33:46.463Z,158779.03
2022-12-26T12:36:29.764Z,158789.78
2022-12-26T12:39:34.643Z,158803.06
2022-12-26T12:42:06.986Z,158808.41
2022-12-26T12:45:03.633Z,158829.72
2022-12-26T12:47:45.695Z,158837.72
2022-12-26T12:50:15.668Z,158832.41
2022-12-26T12:53:09.715Z,158835.06
2022-12-26T12:56:06.028Z,158833.75
2022-12-26T12:58:52.203Z,158835.06
2022-12-26T13:01:23.423Z,158840.41
2022-12-26T13:04:09.766Z,158845.69
2022-12-26T13:06:42.395Z,158853.75
2022-12-26T13:09:17.577Z,158861.75
2022-12-26T13:11:49.309Z,158877.72
2022-12-26T13:14:21.238Z,158876.41
2022-12-26T13:17:06.790Z,158865.72
2022-12-26T13:19:51.989Z,158872.38
2022-12-26T13:22:49.496Z,158868.41
2022-12-26T13:25:18.923Z,158881.72
2022-12-26T13:27:47.159Z,158887.03
2022-12-26T13:30:16.725Z,158881.72
2022-12-26T13:32:46.796Z,158891.06
2022-12-26T13:35:55.658Z,158904.38
2022-12-26T13:38:24.651Z,158908.34
2022-12-26T13:41:21.376Z,158905.72
2022-12-26T13:44:06.465Z,158915.03
2022-12-26T13:46:45.763Z,158908.34
2022-12-26T13:49:36.612Z,158889.72
2022-12-26T13:52:19.290Z,158893.69
2022-12-26T13:54:50.487Z,158899.03
2022-12-26T13:57:39.545Z,158900.38
2022-12-26T14:00:06.961Z,158907.03
2022-12-26T14:03:17.925Z,158909.72
2022-12-26T14:05:54.410Z,158904.38
2022-12-26T14:08:38.357Z,158907.03
2022-12-26T14:11:11.650Z,158904.38
2022-12-26T14:14:07.274Z,158904.38
2022-12-26T14:17:06.965Z,158901.69
2022-12-26T14:19:57.870Z,158916.41
2022-12-26T14:22:37.191Z,158900.38
2022-12-26T14:25:27.298Z,158900.38
2022-12-26T14:28:03.126Z,158901.69
2022-12-26T14:30:37.435Z,158873.69
2022-12-26T14:33:23.140Z,158896.41
2022-12-26T14:36:00.803Z,158899.03
2022-12-26T14:38:34.050Z,158900.38
2022-12-26T14:41:09.544Z,158896.41
2022-12-26T14:43:41.461Z,158892.38
2022-12-26T14:46:30.649Z,158891.06
2022-12-26T14:49:37.463Z,158885.72
2022-12-26T14:52:24.251Z,158881.72
2022-12-26T14:54:55.521Z,158877.72
2022-12-26T14:57:43.840Z,158877.72
2022-12-26T15:00:16.580Z,158881.72
2022-12-26T15:02:48.822Z,158885.72
2022-12-26T15:05:28.360Z,158887.03
2022-12-26T15:08:08.664Z,158889.72
2022-12-26T15:11:06.984Z,158884.38
2022-12-26T15:13:49.179Z,158881.72
2022-12-26T15:16:22.318Z,158883.06
2022-12-26T15:19:02.439Z,158879.03
2022-12-26T15:21:44.545Z,158883.06
2022-12-26T15:24:11.809Z,158868.41
2022-12-26T15:27:02.022Z,158860.41
2022-12-26T15:29:52.554Z,158847.06
2022-12-26T15:32:38.343Z,158849.72
2022-12-26T15:35:21.714Z,158829.72
2022-12-26T15:38:12.889Z,158820.41
2022-12-26T15:40:46.288Z,158821.72
2022-12-26T15:43:34.581Z,158824.38
2022-12-26T15:46:27.583Z,158823.06
2022-12-26T15:49:13.643Z,158815.06
2022-12-26T15:52:19.953Z,158819.09
2022-12-26T15:55:12.107Z,158813.75
2022-12-26T15:57:49.171Z,158829.72
2022-12-26T16:00:29.185Z,158816.38
2022-12-26T16:03:33.701Z,158819.09
2022-12-26T16:06:13.002Z,158813.75
2022-12-26T16:09:00.399Z,158809.72
2022-12-26T16:11:50.519Z,158808.41
2022-12-26T16:14:40.796Z,158807.06
2022-12-26T16:17:14.159Z,158808.41
2022-12-26T16:19:50.293Z,158805.75
2022-12-26T16:22:47.975Z,158813.75
2022-12-26T16:25:22.070Z,158827.06
2022-12-26T16:27:51.998Z,158812.41
2022-12-26T16:30:24.312Z,158809.72
2022-12-26T16:32:51.973Z,158813.75
2022-12-26T16:35:25.989Z,158819.09
2022-12-26T16:37:55.059Z,158811.09
2022-12-26T16:40:31.307Z,158812.41
2022-12-26T16:43:01.501Z,158801.72
2022-12-26T16:45:36.417Z,158800.41
2022-12-26T16:48:07.164Z,158813.75
2022-12-26T16:50:37.749Z,158821.72
2022-12-26T16:53:13.858Z,158812.41
2022-12-26T16:56:10.768Z,158813.75
2022-12-26T16:58:38.293Z,158795.06
2022-12-26T17:01:17.562Z,158813.75
2022-12-26T17:04:18.688Z,158803.06
2022-12-26T17:06:53.609Z,158796.38
2022-12-26T17:09:22.135Z,158793.75
2022-12-26T17:11:58.677Z,158789.78
2022-12-26T17:14:29.264Z,158808.41
2022-12-26T17:17:01.717Z,158793.75
2022-12-26T17:19:31.854Z,158808.41
2022-12-26T17:22:21.392Z,158812.41
2022-12-26T17:24:50.833Z,158811.09
2022-12-26T17:27:26.596Z,158828.41
2022-12-26T17:29:57.361Z,158819.09
2022-12-26T17:32:30.781Z,158825.75
2022-12-26T17:35:01.944Z,158827.06
2022-12-26T17:37:29.540Z,158816.38
2022-12-26T17:40:19.568Z,158821.72
2022-12-26T17:42:49.376Z,158809.72
2022-12-26T17:45:25.383Z,158820.41
2022-12-26T17:47:54.469Z,158811.09
2022-12-26T17:50:23.259Z,158808.41
2022-12-26T17:52:50.836Z,158811.09
2022-12-26T17:55:22.914Z,158803.06
2022-12-26T17:57:50.838Z,158805.75
2022-12-26T18:00:25.189Z,158816.38
2022-12-26T18:02:52.953Z,158824.38
2022-12-26T18:05:21.920Z,158820.41
2022-12-26T18:07:51.020Z,158817.75
2022-12-26T18:10:26.264Z,158831.03
2022-12-26T18:12:53.627Z,158839.09
2022-12-26T18:15:21.049Z,158841.72
2022-12-26T18:17:50.220Z,158831.03
2022-12-26T18:20:20.023Z,158831.03
2022-12-26T18:22:51.322Z,158844.38
2022-12-26T18:25:21.776Z,158844.38
2022-12-26T18:27:49.573Z,158853.75
2022-12-26T18:30:22.752Z,158851.03
2022-12-26T18:32:52.128Z,158855.06
2022-12-26T18:35:19.990Z,158845.69
2022-12-26T18:37:50.062Z,158864.38
2022-12-26T18:40:28.925Z,158867.09
2022-12-26T18:42:56.265Z,158872.38
2022-12-26T18:45:23.830Z,158876.41
2022-12-26T18:47:51.427Z,158877.72
2022-12-26T18:50:18.944Z,158859.03
2022-12-26T18:52:51.572Z,158872.38
2022-12-26T18:55:21.614Z,158867.09
2022-12-26T18:57:49.456Z,158861.75
2022-12-26T19:00:18.059Z,158864.38
2022-12-26T19:02:47.513Z,158860.41
2022-12-26T19:05:18.373Z,158860.41
2022-12-26T19:07:48.318Z,158843.06
2022-12-26T19:10:17.436Z,158845.69
2022-12-26T19:12:45.188Z,158827.06
2022-12-26T19:15:12.883Z,158823.06
2022-12-26T19:17:41.191Z,158828.41
2022-12-26T19:20:09.885Z,158835.06
2022-12-26T19:22:37.290Z,158828.41
2022-12-26T19:25:06.192Z,158827.06
2022-12-26T19:27:33.541Z,158803.06
2022-12-26T19:30:00.796Z,158807.06
2022-12-26T19:32:29.288Z,158801.72
2022-12-26T19:34:57.579Z,158808.41
2022-12-26T19:37:25.192Z,158816.38
2022-12-26T19:39:52.311Z,158811.09
2022-12-26T19:42:20.093Z,158807.06
2022-12-26T19:44:48.224Z,158823.06
2022-12-26T19:47:15.848Z,158805.75
2022-12-26T19:49:43.323Z,158799.09
2022-12-26T19:52:11.615Z,158817.75
2022-12-26T19:54:39.263Z,158803.06
2022-12-26T19:57:06.939Z,158804.44
2022-12-26T19:59:34.374Z,158803.06
2022-12-26T20:02:02.331Z,158803.06
2022-12-26T20:04:29.936Z,158804.44
2022-12-26T20:07:00.761Z,158804.44
2022-12-26T20:09:28.055Z,158789.78
2022-12-26T20:11:56.195Z,158799.09
2022-12-26T20:14:26.289Z,158789.78
2022-12-26T20:17:06.641Z,158780.41
2022-12-26T20:19:35.688Z,158788.41
2022-12-26T20:22:04.699Z,158793.75
2022-12-26T20:24:32.674Z,158785.75
2022-12-26T20:27:00.507Z,158781.75
2022-12-26T20:29:27.788Z,158791.09
2022-12-26T20:31:55.549Z,158791.09
2022-12-26T20:34:23.040Z,158780.41
2022-12-26T20:36:50.530Z,158791.09
2022-12-26T20:39:20.079Z,158797.75
2022-12-26T20:41:47.608Z,158789.78
2022-12-26T20:44:15.804Z,158803.06
2022-12-26T20:46:44.282Z,158796.38
2022-12-26T20:49:12.294Z,158797.75
2022-12-26T20:51:41.940Z,158789.78
2022-12-26T20:54:11.188Z,158785.75
2022-12-26T20:56:39.720Z,158797.75
2022-12-26T20:59:07.114Z,158781.75
2022-12-26T21:01:35.519Z,158777.72
2022-12-26T21:04:03.001Z,158777.72
2022-12-26T21:06:32.701Z,158776.41
2022-12-26T21:09:00.059Z,158781.75
2022-12-26T21:11:38.703Z,158771.06
2022-12-26T21:14:08.909Z,158779.03
2022-12-26T21:16:42.835Z,158767.03
2022-12-26T21:19:15.020Z,158771.06
2022-12-26T21:21:45.861Z,158781.75
2022-12-26T21:24:16.175Z,158772.38
2022-12-26T21:26:43.759Z,158765.72
2022-12-26T21:29:14.835Z,158771.06
2022-12-26T21:31:42.803Z,158775.03
2022-12-26T21:34:11.208Z,158769.72
2022-12-26T21:36:39.117Z,158772.38
2022-12-26T21:39:10.621Z,158759.03
2022-12-26T21:41:38.327Z,158752.38
2022-12-26T21:44:05.898Z,158732.38
2022-12-26T21:46:33.404Z,158735.06
2022-12-26T21:49:01.176Z,158707.09
2022-12-26T21:51:29.832Z,158701.75
2022-12-26T21:54:17.327Z,158683.09
2022-12-26T21:56:44.904Z,158664.47
2022-12-26T21:59:38.242Z,158655.13
2022-12-26T22:02:25.746Z,158639.13
2022-12-26T22:04:53.270Z,158640.47
2022-12-26T22:07:20.924Z,158625.81
2022-12-26T22:09:48.059Z,158620.47
2022-12-26T22:12:33.871Z,158607.19
2022-12-26T22:15:01.296Z,158579.22
2022-12-26T22:17:28.989Z,158573.88
2022-12-26T22:19:56.456Z,158565.91
2022-12-26T22:22:23.930Z,158559.25
2022-12-26T22:24:51.246Z,158559.25
2022-12-26T22:27:18.863Z,158549.88
2022-12-26T22:29:46.074Z,158545.91
2022-12-26T22:32:13.476Z,158535.25
2022-12-26T22:34:40.776Z,158523.28
2022-12-26T22:37:08.144Z,158511.28
2022-12-26T22:39:35.283Z,158500.63
2022-12-26T22:42:02.811Z,158504.63
2022-12-26T22:44:30.158Z,158497.97
2022-12-26T22:46:57.865Z,158509.97
2022-12-26T22:49:25.153Z,158511.28
2022-12-26T22:51:52.894Z,158502.00
2022-12-26T22:54:20.551Z,158502.00
2022-12-26T22:56:48.167Z,158507.28
2022-12-26T22:59:33.884Z,158504.63
2022-12-26T23:02:03.019Z,158513.94
2022-12-26T23:04:32.423Z,158517.94
2022-12-26T23:07:00.204Z,158524.63
2022-12-26T23:09:27.790Z,158531.28
2022-12-26T23:12:14.016Z,158543.22
2022-12-26T23:14:41.424Z,158545.91
2022-12-26T23:17:11.657Z,158548.56
2022-12-26T23:20:08.569Z,158543.22
2022-12-26T23:22:36.441Z,158543.22
2022-12-26T23:25:03.786Z,158537.94
2022-12-26T23:27:49.767Z,158537.94
2022-12-26T23:30:20.089Z,158528.56
2022-12-26T23:32:50.689Z,158525.94
2022-12-26T23:35:18.786Z,158520.59
2022-12-26T23:37:46.167Z,158512.63
2022-12-26T23:40:15.629Z,158511.28
2022-12-26T23:42:43.205Z,158520.59
2022-12-26T23:45:11.573Z,158519.28
2022-12-26T23:47:40.767Z,158517.94
2022-12-26T23:50:09.616Z,158516.63
2022-12-26T23:52:37.644Z,158512.63
2022-12-26T23:55:05.435Z,158523.28
2022-12-26T23:57:32.801Z,158509.97
2022-12-26T23:59:59.885Z,158500.63
